createdAt,value
2023-02-25T00:01:24.171Z,4.45
2023-02-25T00:03:55.779Z,3.78
2023-02-25T00:06:24.315Z,2.97
2023-02-25T00:08:53.231Z,3.25
2023-02-25T00:11:21.675Z,3.63
2023-02-25T00:13:48.981Z,3.30
2023-02-25T00:16:16.763Z,3.10
2023-02-25T00:18:47.129Z,3.15
2023-02-25T00:21:16.863Z,2.83
2023-02-25T00:23:46.284Z,6.15
2023-02-25T00:26:14.020Z,3.92
2023-02-25T00:28:41.943Z,3.35
2023-02-25T00:31:11.755Z,2.85
2023-02-25T00:33:42.370Z,3.90
2023-02-25T00:36:14.875Z,2.63
2023-02-25T00:38:42.079Z,2.97
2023-02-25T00:41:11.969Z,2.53
2023-02-25T00:43:42.735Z,3.85
2023-02-25T00:46:13.691Z,3.55
2023-02-25T00:48:40.969Z,3.00
2023-02-25T00:51:09.813Z,2.53
2023-02-25T00:53:40.006Z,2.45
2023-02-25T00:56:08.537Z,2.72
2023-02-25T00:58:37.188Z,3.08
2023-02-25T01:01:06.825Z,2.97
2023-02-25T01:03:34.070Z,3.05
2023-02-25T01:06:03.128Z,2.35
2023-02-25T01:08:30.588Z,3.47
2023-02-25T01:10:57.680Z,3.75
2023-02-25T01:13:26.366Z,3.47
2023-02-25T01:15:53.680Z,3.70
2023-02-25T01:18:20.849Z,3.88
2023-02-25T01:20:47.974Z,3.10
2023-02-25T01:23:15.025Z,4.20
2023-02-25T01:25:42.224Z,4.40
2023-02-25T01:28:09.629Z,4.32
2023-02-25T01:30:38.451Z,4.38
2023-02-25T01:33:05.743Z,3.83
2023-02-25T01:35:32.924Z,4.63
2023-02-25T01:38:00.035Z,4.15
2023-02-25T01:40:27.154Z,3.83
2023-02-25T01:42:54.465Z,3.53
2023-02-25T01:45:29.339Z,4.45
2023-02-25T01:48:05.548Z,3.50
2023-02-25T01:50:39.018Z,3.85
2023-02-25T01:53:06.842Z,3.60
2023-02-25T01:55:34.396Z,3.30
2023-02-25T01:58:01.977Z,2.88
2023-02-25T02:00:32.583Z,2.60
2023-02-25T02:03:00.694Z,3.05
2023-02-25T02:05:52.857Z,6.68
2023-02-25T02:08:20.643Z,4.20
2023-02-25T02:10:47.794Z,3.17
2023-02-25T02:13:15.079Z,3.03
2023-02-25T02:15:50.491Z,3.35
2023-02-25T02:18:19.447Z,2.70
2023-02-25T02:20:55.904Z,2.75
2023-02-25T02:23:25.863Z,2.80
2023-02-25T02:26:16.027Z,2.75
2023-02-25T02:29:18.773Z,3.53
2023-02-25T02:34:34.484Z,2.58
2023-02-25T02:37:08.218Z,3.60
2023-02-25T02:40:19.753Z,3.85
2023-02-25T02:43:13.625Z,2.85
2023-02-25T02:45:59.353Z,3.22
2023-02-25T02:48:45.194Z,3.25
2023-02-25T02:51:33.427Z,3.90
2023-02-25T02:54:05.973Z,2.83
2023-02-25T02:56:35.984Z,4.00
2023-02-25T02:59:08.470Z,2.75
2023-02-25T03:01:41.750Z,3.22
2023-02-25T03:04:14.221Z,2.90
2023-02-25T03:06:47.025Z,4.03
2023-02-25T03:09:24.745Z,2.87
2023-02-25T03:11:52.399Z,2.42
2023-02-25T03:14:19.979Z,3.28
2023-02-25T03:16:49.564Z,2.60
2023-02-25T03:19:39.753Z,3.22
2023-02-25T03:22:29.696Z,2.42
2023-02-25T03:25:10.153Z,2.47
2023-02-25T03:27:43.380Z,2.63
2023-02-25T03:30:47.059Z,2.28
2023-02-25T03:35:56.441Z,3.30
2023-02-25T03:38:28.905Z,3.58
2023-02-25T03:40:59.907Z,2.40
2023-02-25T03:43:47.233Z,2.80
2023-02-25T03:46:15.745Z,3.50
2023-02-25T03:48:44.457Z,3.05
2023-02-25T03:51:16.578Z,3.08
2023-02-25T03:53:45.359Z,2.28
2023-02-25T03:56:17.491Z,4.05
2023-02-25T03:58:45.129Z,2.70
2023-02-25T04:01:21.585Z,2.72
2023-02-25T04:03:48.805Z,3.72
2023-02-25T04:06:16.407Z,3.25
2023-02-25T04:08:44.151Z,3.08
2023-02-25T04:11:11.266Z,2.72
2023-02-25T04:13:38.893Z,3.80
2023-02-25T04:16:08.520Z,3.45
2023-02-25T04:18:38.157Z,3.78
2023-02-25T04:21:08.526Z,2.80
2023-02-25T04:23:36.703Z,3.28
2023-02-25T04:26:04.424Z,2.90
2023-02-25T04:28:31.611Z,3.13
2023-02-25T04:30:58.888Z,2.95
2023-02-25T04:33:26.156Z,2.63
2023-02-25T04:35:54.555Z,3.05
2023-02-25T04:38:21.713Z,3.25
2023-02-25T04:40:51.978Z,2.80
2023-02-25T04:43:19.201Z,3.47
2023-02-25T04:45:46.883Z,3.00
2023-02-25T04:48:14.039Z,2.97
2023-02-25T04:50:41.187Z,3.63
2023-02-25T04:53:08.352Z,3.30
2023-02-25T04:55:37.134Z,3.35
2023-02-25T04:58:04.656Z,3.30
2023-02-25T05:00:32.054Z,2.75
2023-02-25T05:02:59.274Z,3.50
2023-02-25T05:05:26.682Z,3.20
2023-02-25T05:07:54.025Z,3.58
2023-02-25T05:10:21.236Z,3.45
2023-02-25T05:12:48.321Z,3.00
2023-02-25T05:15:16.324Z,2.78
2023-02-25T05:17:43.449Z,3.25
2023-02-25T05:20:12.273Z,3.08
2023-02-25T05:22:40.571Z,3.40
2023-02-25T05:25:10.109Z,3.67
2023-02-25T05:27:37.377Z,3.45
2023-02-25T05:30:05.250Z,2.90
2023-02-25T05:32:32.596Z,3.22
2023-02-25T05:35:00.571Z,4.13
2023-02-25T05:37:27.918Z,4.25
2023-02-25T05:39:55.045Z,3.67
2023-02-25T05:42:22.243Z,2.80
2023-02-25T05:44:49.354Z,3.03
2023-02-25T05:47:16.767Z,3.00
2023-02-25T05:49:43.935Z,3.03
2023-02-25T05:52:13.004Z,2.78
2023-02-25T05:54:40.408Z,2.70
2023-02-25T05:57:07.597Z,3.17
2023-02-25T05:59:36.859Z,3.72
2023-02-25T06:02:04.600Z,3.45
2023-02-25T06:04:31.766Z,2.40
2023-02-25T06:06:58.924Z,3.15
2023-02-25T06:09:27.249Z,2.83
2023-02-25T06:11:54.565Z,2.88
2023-02-25T06:14:21.703Z,2.70
2023-02-25T06:16:49.073Z,2.92
2023-02-25T06:19:17.339Z,3.08
2023-02-25T06:21:44.480Z,4.13
2023-02-25T06:24:11.696Z,3.30
2023-02-25T06:26:41.940Z,3.35
2023-02-25T06:29:10.645Z,2.95
2023-02-25T06:31:37.964Z,3.97
2023-02-25T06:34:05.424Z,4.57
2023-02-25T06:36:32.974Z,3.38
2023-02-25T06:39:00.678Z,3.75
2023-02-25T06:41:28.567Z,3.50
2023-02-25T06:43:56.498Z,3.38
2023-02-25T06:46:26.490Z,4.45
2023-02-25T06:48:54.696Z,3.55
2023-02-25T06:51:23.284Z,4.32
2023-02-25T06:53:53.382Z,4.13
2023-02-25T06:56:22.355Z,3.85
2023-02-25T06:58:52.594Z,3.60
2023-02-25T07:01:19.967Z,3.60
2023-02-25T07:03:47.556Z,3.65
2023-02-25T07:06:16.092Z,5.30
2023-02-25T07:08:44.190Z,3.97
2023-02-25T07:11:18.814Z,4.50
2023-02-25T07:13:50.301Z,5.13
2023-02-25T07:16:18.217Z,4.10
2023-02-25T07:18:45.849Z,3.22
2023-02-25T07:21:13.817Z,3.15
2023-02-25T07:23:41.566Z,2.67
2023-02-25T07:26:11.022Z,2.90
2023-02-25T07:28:39.093Z,3.60
2023-02-25T07:31:17.436Z,3.67
2023-02-25T07:33:45.736Z,3.90
2023-02-25T07:36:14.007Z,4.90
2023-02-25T07:38:41.736Z,3.38
2023-02-25T07:41:12.019Z,3.10
2023-02-25T07:43:40.090Z,2.90
2023-02-25T07:46:08.439Z,3.50
2023-02-25T07:48:36.551Z,3.15
2023-02-25T07:51:19.191Z,2.85
2023-02-25T07:53:47.549Z,2.92
2023-02-25T07:56:15.986Z,3.50
2023-02-25T07:58:43.550Z,3.08
2023-02-25T08:01:26.625Z,3.00
2023-02-25T08:03:57.343Z,2.85
2023-02-25T08:06:25.404Z,3.38
2023-02-25T08:08:52.858Z,3.42
2023-02-25T08:11:21.897Z,3.85
2023-02-25T08:13:49.307Z,2.97
2023-02-25T08:16:18.536Z,2.10
2023-02-25T08:18:47.008Z,2.67
2023-02-25T08:21:18.226Z,3.75
2023-02-25T08:23:45.417Z,3.60
2023-02-25T08:26:12.631Z,3.60
2023-02-25T08:28:39.842Z,3.47
2023-02-25T08:31:12.201Z,3.78
2023-02-25T08:33:45.702Z,4.28
2023-02-25T08:36:20.606Z,3.83
2023-02-25T08:38:48.247Z,4.60
2023-02-25T08:41:15.415Z,4.55
2023-02-25T08:43:43.003Z,4.07
2023-02-25T08:46:10.931Z,5.60
2023-02-25T08:48:39.614Z,4.93
2023-02-25T08:51:08.913Z,3.78
2023-02-25T08:53:38.809Z,4.13
2023-02-25T08:56:12.071Z,3.50
2023-02-25T08:58:39.603Z,3.63
2023-02-25T09:01:15.726Z,3.85
2023-02-25T09:03:52.903Z,4.18
2023-02-25T09:06:22.328Z,4.00
2023-02-25T09:08:51.470Z,4.55
2023-02-25T09:11:19.434Z,4.20
2023-02-25T09:13:46.621Z,5.18
2023-02-25T09:16:17.930Z,4.13
2023-02-25T09:18:46.397Z,3.87
2023-02-25T09:21:14.348Z,4.60
2023-02-25T09:23:41.768Z,3.72
2023-02-25T09:26:09.021Z,4.97
2023-02-25T09:28:36.827Z,4.53
2023-02-25T09:31:04.561Z,3.78
2023-02-25T09:33:33.439Z,3.80
2023-02-25T09:36:12.642Z,3.03
2023-02-25T09:38:41.887Z,3.70
2023-02-25T09:41:27.907Z,4.03
2023-02-25T09:44:05.986Z,3.63
2023-02-25T09:46:36.317Z,3.38
2023-02-25T09:49:18.420Z,3.47
2023-02-25T09:51:50.901Z,3.08
2023-02-25T09:54:23.788Z,3.20
2023-02-25T09:56:53.910Z,4.57
2023-02-25T09:59:24.605Z,3.42
2023-02-25T10:02:06.657Z,3.63
2023-02-25T10:05:00.216Z,4.03
2023-02-25T10:07:34.268Z,4.65
2023-02-25T10:10:34.536Z,3.38
2023-02-25T10:13:22.499Z,4.30
2023-02-25T10:16:02.961Z,3.30
2023-02-25T10:19:24.074Z,3.25
2023-02-25T10:22:10.015Z,3.55
2023-02-25T10:24:45.472Z,3.45
2023-02-25T10:27:37.019Z,3.20
2023-02-25T10:30:08.365Z,3.03
2023-02-25T10:32:37.368Z,2.50
2023-02-25T10:35:19.974Z,2.25
2023-02-25T10:37:47.292Z,2.65
2023-02-25T10:40:17.621Z,3.05
2023-02-25T10:42:50.815Z,2.60
2023-02-25T10:45:24.214Z,2.25
2023-02-25T10:48:07.630Z,2.70
2023-02-25T10:50:45.340Z,2.50
2023-02-25T10:53:18.400Z,2.65
2023-02-25T10:55:54.972Z,2.42
2023-02-25T10:58:47.305Z,2.42
2023-02-25T11:01:21.031Z,1.80
2023-02-25T11:04:06.335Z,2.10
2023-02-25T11:06:42.052Z,1.88
2023-02-25T11:09:21.771Z,2.00
2023-02-25T11:12:19.240Z,2.10
2023-02-25T11:14:46.745Z,2.63
2023-02-25T11:17:20.407Z,2.50
2023-02-25T11:20:16.345Z,2.90
2023-02-25T11:22:45.514Z,2.08
2023-02-25T11:25:40.901Z,2.45
2023-02-25T11:28:23.068Z,1.83
2023-02-25T11:30:50.502Z,1.98
2023-02-25T11:33:35.753Z,2.08
2023-02-25T11:36:04.049Z,1.77
2023-02-25T11:38:37.746Z,2.00
2023-02-25T11:41:16.785Z,1.80
2023-02-25T11:43:44.111Z,1.58
2023-02-25T11:46:24.005Z,1.95
2023-02-25T11:49:21.948Z,1.80
2023-02-25T11:52:00.240Z,1.42
2023-02-25T11:54:46.867Z,1.20
2023-02-25T11:57:14.034Z,2.08
2023-02-25T11:59:56.116Z,1.85
2023-02-25T12:03:10.131Z,2.28
2023-02-25T12:05:59.569Z,1.83
2023-02-25T12:08:40.265Z,2.40
2023-02-25T12:11:34.051Z,1.20
2023-02-25T12:14:06.934Z,2.25
2023-02-25T12:17:11.536Z,1.35
2023-02-25T12:20:19.620Z,2.85
2023-02-25T12:23:01.757Z,1.40
2023-02-25T12:25:36.898Z,1.80
2023-02-25T12:28:34.645Z,2.10
2023-02-25T12:31:40.214Z,1.90
2023-02-25T12:34:25.933Z,2.38
2023-02-25T12:36:59.711Z,1.77
2023-02-25T12:39:53.564Z,3.42
2023-02-25T12:42:39.123Z,1.73
2023-02-25T12:45:24.810Z,2.08
2023-02-25T12:47:58.002Z,1.50
2023-02-25T12:50:31.151Z,1.95
2023-02-25T12:53:36.049Z,1.83
2023-02-25T12:56:32.436Z,2.40
2023-02-25T12:59:05.572Z,1.70
2023-02-25T13:01:57.738Z,2.13
2023-02-25T13:04:58.158Z,2.40
2023-02-25T13:07:51.476Z,1.77
2023-02-25T13:10:22.253Z,2.53
2023-02-25T13:13:23.171Z,2.10
2023-02-25T13:16:07.504Z,1.70
2023-02-25T13:18:55.575Z,2.30
2023-02-25T13:22:07.521Z,1.90
2023-02-25T13:24:56.656Z,0.77
2023-02-25T13:27:53.669Z,0.93
2023-02-25T13:30:35.539Z,1.00
2023-02-25T13:33:40.423Z,1.00
2023-02-25T13:36:49.708Z,1.92
2023-02-25T13:39:43.005Z,1.20
2023-02-25T13:42:38.007Z,1.40
2023-02-25T13:45:26.114Z,1.50
2023-02-25T13:48:02.752Z,1.90
2023-02-25T13:50:50.826Z,2.65
2023-02-25T13:53:49.990Z,2.20
2023-02-25T13:56:55.469Z,1.95
2023-02-25T13:59:38.794Z,1.92
2023-02-25T14:02:24.911Z,2.95
2023-02-25T14:05:23.886Z,2.38
2023-02-25T14:08:12.837Z,2.58
2023-02-25T14:11:05.461Z,1.48
2023-02-25T14:13:53.268Z,1.70
2023-02-25T14:16:35.839Z,2.15
2023-02-25T14:19:09.574Z,1.60
2023-02-25T14:22:16.439Z,1.65
2023-02-25T14:25:17.794Z,1.60
2023-02-25T14:28:13.495Z,1.70
2023-02-25T14:31:10.217Z,1.80
2023-02-25T14:34:13.090Z,2.17
2023-02-25T14:36:46.492Z,1.23
2023-02-25T14:39:38.874Z,1.60
2023-02-25T14:42:38.222Z,1.80
2023-02-25T14:45:15.766Z,1.60
2023-02-25T14:47:58.620Z,1.70
2023-02-25T14:51:07.822Z,1.75
2023-02-25T14:53:47.291Z,1.67
2023-02-25T14:56:43.159Z,1.92
2023-02-25T14:59:19.172Z,1.92
2023-02-25T15:02:21.294Z,2.97
2023-02-25T15:05:28.536Z,1.60
2023-02-25T15:07:58.769Z,2.15
2023-02-25T15:10:50.375Z,1.98
2023-02-25T15:13:29.840Z,1.95
2023-02-25T15:16:41.721Z,1.70
2023-02-25T15:19:44.054Z,1.55
2023-02-25T15:22:17.803Z,1.63
2023-02-25T15:24:45.936Z,2.40
2023-02-25T15:27:54.403Z,1.50
2023-02-25T15:30:25.801Z,2.22
2023-02-25T15:33:24.636Z,2.05
2023-02-25T15:35:55.459Z,1.20
2023-02-25T15:38:43.314Z,2.05
2023-02-25T15:41:38.672Z,1.25
2023-02-25T15:44:08.801Z,1.38
2023-02-25T15:46:36.058Z,1.23
2023-02-25T15:49:12.624Z,1.20
2023-02-25T15:51:51.566Z,0.90
2023-02-25T15:54:31.005Z,1.17
2023-02-25T15:57:11.283Z,1.63
2023-02-25T15:59:50.417Z,1.10
2023-02-25T16:02:27.375Z,1.65
2023-02-25T16:05:07.988Z,1.70
2023-02-25T16:07:40.618Z,1.42
2023-02-25T16:10:17.534Z,1.67
2023-02-25T16:12:48.684Z,1.20
2023-02-25T16:15:37.204Z,1.63
2023-02-25T16:18:32.486Z,1.88
2023-02-25T16:21:06.573Z,2.33
2023-02-25T16:23:38.722Z,1.70
2023-02-25T16:26:23.646Z,1.52
2023-02-25T16:28:57.380Z,3.30
2023-02-25T16:32:04.610Z,2.08
2023-02-25T16:34:36.272Z,1.85
2023-02-25T16:37:37.758Z,1.63
2023-02-25T16:40:05.722Z,1.60
2023-02-25T16:42:34.306Z,1.88
2023-02-25T16:45:06.283Z,1.67
2023-02-25T16:47:36.863Z,1.95
2023-02-25T16:50:12.824Z,2.22
2023-02-25T16:52:50.732Z,2.55
2023-02-25T16:55:35.657Z,1.77
2023-02-25T16:58:07.309Z,2.20
2023-02-25T17:00:36.576Z,1.92
2023-02-25T17:03:10.798Z,2.72
2023-02-25T17:05:38.845Z,1.83
2023-02-25T17:08:15.534Z,2.28
2023-02-25T17:10:56.791Z,1.75
2023-02-25T17:13:31.369Z,1.52
2023-02-25T17:16:00.853Z,2.17
2023-02-25T17:18:39.842Z,1.85
2023-02-25T17:21:16.965Z,1.83
2023-02-25T17:23:44.927Z,1.60
2023-02-25T17:26:16.234Z,2.72
2023-02-25T17:28:46.124Z,1.93
2023-02-25T17:31:18.258Z,3.28
2023-02-25T17:36:22.171Z,2.07
2023-02-25T17:41:19.983Z,2.20
2023-02-25T17:43:47.291Z,1.83
2023-02-25T17:46:24.512Z,1.88
2023-02-25T17:49:01.056Z,1.85
2023-02-25T17:51:37.578Z,2.40
2023-02-25T17:54:13.809Z,1.33
2023-02-25T17:56:41.404Z,2.05
2023-02-25T17:59:28.646Z,1.40
2023-02-25T18:01:58.414Z,1.60
2023-02-25T18:04:36.328Z,1.60
2023-02-25T18:07:29.993Z,2.80
2023-02-25T18:09:57.531Z,2.00
2023-02-25T18:12:27.961Z,1.75
2023-02-25T18:14:58.949Z,1.95
2023-02-25T18:17:32.256Z,2.67
2023-02-25T18:20:03.504Z,2.13
2023-02-25T18:22:39.506Z,2.03
2023-02-25T18:25:28.299Z,1.85
2023-02-25T18:27:55.783Z,2.00
2023-02-25T18:30:26.148Z,2.78
2023-02-25T18:32:54.453Z,1.98
2023-02-25T18:35:22.188Z,1.98
2023-02-25T18:37:51.820Z,2.70
2023-02-25T18:40:40.317Z,5.45
2023-02-25T18:43:07.977Z,2.17
2023-02-25T18:45:36.070Z,2.30
2023-02-25T18:48:03.393Z,2.85
2023-02-25T18:50:32.005Z,2.55
2023-02-25T18:53:00.451Z,2.03
2023-02-25T18:55:32.872Z,2.30
2023-02-25T18:58:01.183Z,2.72
2023-02-25T19:00:28.670Z,2.65
2023-02-25T19:03:01.311Z,2.33
2023-02-25T19:05:29.844Z,2.35
2023-02-25T19:07:57.939Z,2.00
2023-02-25T19:10:28.047Z,2.97
2023-02-25T19:13:14.885Z,2.70
2023-02-25T19:15:42.277Z,2.78
2023-02-25T19:18:13.996Z,2.67
2023-02-25T19:20:44.972Z,3.05
2023-02-25T19:23:15.084Z,1.80
2023-02-25T19:25:43.623Z,3.15
2023-02-25T19:28:11.494Z,3.17
2023-02-25T19:30:42.403Z,3.17
2023-02-25T19:33:11.787Z,2.35
2023-02-25T19:35:42.167Z,2.92
2023-02-25T19:38:14.240Z,2.47
2023-02-25T19:43:08.936Z,2.67
2023-02-25T19:45:36.602Z,1.88
2023-02-25T19:48:04.168Z,2.72
2023-02-25T19:50:34.810Z,3.97
2023-02-25T19:53:03.622Z,3.47
2023-02-25T19:55:30.874Z,2.63
2023-02-25T19:57:58.176Z,2.42
2023-02-25T20:00:26.300Z,2.70
2023-02-25T20:02:54.096Z,2.78
2023-02-25T20:05:22.348Z,2.40
2023-02-25T20:07:50.087Z,4.18
2023-02-25T20:10:17.899Z,2.35
2023-02-25T20:12:46.714Z,2.22
2023-02-25T20:15:15.969Z,2.60
2023-02-25T20:17:45.193Z,2.40
2023-02-25T20:20:13.989Z,3.17
2023-02-25T20:22:41.485Z,3.42
2023-02-25T20:25:10.002Z,2.15
2023-02-25T20:27:39.905Z,4.40
2023-02-25T20:30:08.578Z,3.08
2023-02-25T20:32:36.158Z,4.28
2023-02-25T20:35:03.876Z,4.13
2023-02-25T20:37:35.830Z,3.05
2023-02-25T20:40:08.220Z,3.40
2023-02-25T20:42:35.750Z,4.15
2023-02-25T20:45:03.570Z,3.88
2023-02-25T20:47:36.559Z,4.50
2023-02-25T20:50:06.283Z,3.78
2023-02-25T20:52:33.768Z,3.92
2023-02-25T20:55:01.037Z,3.38
2023-02-25T20:57:28.838Z,4.32
2023-02-25T20:59:56.238Z,2.85
2023-02-25T21:02:23.749Z,3.40
2023-02-25T21:04:52.087Z,4.68
2023-02-25T21:07:19.258Z,3.78
2023-02-25T21:09:47.120Z,4.05
2023-02-25T21:12:14.389Z,3.15
2023-02-25T21:14:41.637Z,3.58
2023-02-25T21:17:13.813Z,3.80
2023-02-25T21:22:08.938Z,3.40
2023-02-25T21:24:36.913Z,3.17
2023-02-25T21:27:04.601Z,3.80
2023-02-25T21:29:32.594Z,3.58
2023-02-25T21:31:59.969Z,3.20
2023-02-25T21:34:30.371Z,3.63
2023-02-25T21:37:01.013Z,3.20
2023-02-25T21:39:28.276Z,2.92
2023-02-25T21:41:55.823Z,3.70
2023-02-25T21:44:23.076Z,2.40
2023-02-25T21:46:50.648Z,3.95
2023-02-25T21:49:18.852Z,2.65
2023-02-25T21:51:46.328Z,2.63
2023-02-25T21:54:14.324Z,2.97
2023-02-25T21:56:41.574Z,3.58
2023-02-25T21:59:09.564Z,6.10
2023-02-25T22:01:40.559Z,4.03
2023-02-25T22:04:08.758Z,5.55
2023-02-25T22:06:36.162Z,2.75
2023-02-25T22:09:04.196Z,4.32
2023-02-25T22:11:36.554Z,3.20
2023-02-25T22:14:05.796Z,2.83
2023-02-25T22:16:33.632Z,4.55
2023-02-25T22:19:00.899Z,2.70
2023-02-25T22:21:30.506Z,2.38
2023-02-25T22:24:00.262Z,3.28
2023-02-25T22:26:31.763Z,3.38
2023-02-25T22:29:01.853Z,3.22
2023-02-25T22:31:29.390Z,2.70
2023-02-25T22:33:57.819Z,2.50
2023-02-25T22:36:25.692Z,5.32
2023-02-25T22:38:53.554Z,4.57
2023-02-25T22:41:29.259Z,5.95
2023-02-25T22:43:58.148Z,3.65
2023-02-25T22:46:28.478Z,2.83
2023-02-25T22:48:56.540Z,5.40
2023-02-25T22:51:26.974Z,5.15
2023-02-25T22:53:55.303Z,3.90
2023-02-25T22:56:23.677Z,5.13
2023-02-25T22:58:51.849Z,6.00
2023-02-25T23:01:20.892Z,2.70
2023-02-25T23:03:50.098Z,2.97
2023-02-25T23:06:20.307Z,2.40
2023-02-25T23:08:47.703Z,2.70
2023-02-25T23:11:24.711Z,2.15
2023-02-25T23:13:53.969Z,3.33
2023-02-25T23:16:24.096Z,2.90
2023-02-25T23:18:52.406Z,2.45
2023-02-25T23:21:20.331Z,2.33
2023-02-25T23:23:50.706Z,2.90
2023-02-25T23:26:20.271Z,3.53
2023-02-25T23:28:49.128Z,2.40
2023-02-25T23:31:28.173Z,2.60
2023-02-25T23:34:03.709Z,3.25
2023-02-25T23:36:31.153Z,2.33
2023-02-25T23:39:00.566Z,2.10
2023-02-25T23:41:28.479Z,2.83
2023-02-25T23:43:57.749Z,2.33
2023-02-25T23:46:27.586Z,3.65
2023-02-25T23:48:56.809Z,2.90
2023-02-25T23:51:24.520Z,3.15
2023-02-25T23:53:56.803Z,2.38
2023-02-25T23:56:24.697Z,3.00
2023-02-25T23:58:53.910Z,2.53
